sensor_id;sensor_type;location;lat;lon;timestamp;P1;P2;P0
46044;PMS7003;31781;54.094;13.428;2022-11-20T00:04:10;1.00;1.00;0.00
46044;PMS7003;31781;54.094;13.428;2022-11-20T00:09:13;0.00;0.00;0.00
46044;PMS7003;31781;54.094;13.428;2022-11-20T00:14:16;0.00;0.00;0.00
46044;PMS7003;31781;54.094;13.428;2022-11-20T00:19:25;0.00;0.00;0.00
46044;PMS7003;31781;54.094;13.428;2022-11-20T00:24:29;0.00;0.00;0.00
46044;PMS7003;31781;54.094;13.428;2022-11-20T00:29:31;0.00;0.00;0.00
46044;PMS7003;31781;54.094;13.428;2022-11-20T00:34:40;0.00;0.00;0.00
46044;PMS7003;31781;54.094;13.428;2022-11-20T00:39:43;0.33;0.33;0.00
46044;PMS7003;31781;54.094;13.428;2022-11-20T00:44:46;2.00;2.00;1.00
46044;PMS7003;31781;54.094;13.428;2022-11-20T00:49:55;1.33;1.33;1.00
46044;PMS7003;31781;54.094;13.428;2022-11-20T01:05:48;1.00;1.00;1.00
46044;PMS7003;31781;54.094;13.428;2022-11-20T01:10:52;0.00;0.00;0.00
46044;PMS7003;31781;54.094;13.428;2022-11-20T01:16:15;0.67;0.67;0.67
46044;PMS7003;31781;54.094;13.428;2022-11-20T01:21:34;0.67;0.67;0.00
46044;PMS7003;31781;54.094;13.428;2022-11-20T01:26:41;0.00;0.00;0.00
46044;PMS7003;31781;54.094;13.428;2022-11-20T01:31:45;0.00;0.00;0.00
46044;PMS7003;31781;54.094;13.428;2022-11-20T01:36:54;1.00;1.00;0.00
46044;PMS7003;31781;54.094;13.428;2022-11-20T01:41:57;0.00;0.00;0.00
46044;PMS7003;31781;54.094;13.428;2022-11-20T01:47:17;0.33;0.00;0.00
46044;PMS7003;31781;54.094;13.428;2022-11-20T01:52:26;0.00;0.00;0.00
46044;PMS7003;31781;54.094;13.428;2022-11-20T01:57:33;0.00;0.00;0.00
46044;PMS7003;31781;54.094;13.428;2022-11-20T02:02:45;0.00;0.00;0.00
46044;PMS7003;31781;54.094;13.428;2022-11-20T02:07:53;1.00;1.00;1.00
46044;PMS7003;31781;54.094;13.428;2022-11-20T02:12:59;0.00;0.00;0.00
46044;PMS7003;31781;54.094;13.428;2022-11-20T02:18:20;0.67;0.67;0.00
46044;PMS7003;31781;54.094;13.428;2022-11-20T02:23:27;0.00;0.00;0.00
46044;PMS7003;31781;54.094;13.428;2022-11-20T02:28:42;0.00;0.00;0.00
46044;PMS7003;31781;54.094;13.428;2022-11-20T02:33:45;0.00;0.00;0.00
46044;PMS7003;31781;54.094;13.428;2022-11-20T02:38:48;0.00;0.00;0.00
46044;PMS7003;31781;54.094;13.428;2022-11-20T02:43:59;0.00;0.00;0.00
46044;PMS7003;31781;54.094;13.428;2022-11-20T02:59:32;0.00;0.00;0.00
46044;PMS7003;31781;54.094;13.428;2022-11-20T03:04:36;0.00;0.00;0.00
46044;PMS7003;31781;54.094;13.428;2022-11-20T03:15:11;0.00;0.00;0.00
46044;PMS7003;31781;54.094;13.428;2022-11-20T03:20:14;0.00;0.00;0.00
46044;PMS7003;31781;54.094;13.428;2022-11-20T03:25:18;0.00;0.00;0.00
46044;PMS7003;31781;54.094;13.428;2022-11-20T03:30:27;0.67;0.00;0.00
46044;PMS7003;31781;54.094;13.428;2022-11-20T03:35:31;0.00;0.00;0.00
46044;PMS7003;31781;54.094;13.428;2022-11-20T03:40:41;1.00;1.00;0.33
46044;PMS7003;31781;54.094;13.428;2022-11-20T03:56:24;0.00;0.00;0.00
46044;PMS7003;31781;54.094;13.428;2022-11-20T04:01:36;0.00;0.00;0.00
46044;PMS7003;31781;54.094;13.428;2022-11-20T04:06:46;0.00;0.00;0.00
46044;PMS7003;31781;54.094;13.428;2022-11-20T04:11:51;0.00;0.00;0.00
46044;PMS7003;31781;54.094;13.428;2022-11-20T04:16:57;0.00;0.00;0.00
46044;PMS7003;31781;54.094;13.428;2022-11-20T04:22:06;2.00;0.00;0.00
46044;PMS7003;31781;54.094;13.428;2022-11-20T04:27:08;2.00;0.33;0.00
46044;PMS7003;31781;54.094;13.428;2022-11-20T04:32:31;0.67;0.67;0.00
46044;PMS7003;31781;54.094;13.428;2022-11-20T04:37:35;2.00;0.67;0.67
46044;PMS7003;31781;54.094;13.428;2022-11-20T04:42:38;1.00;1.00;0.67
46044;PMS7003;31781;54.094;13.428;2022-11-20T04:47:46;1.00;1.00;0.67
46044;PMS7003;31781;54.094;13.428;2022-11-20T04:52:49;0.67;0.67;0.00
46044;PMS7003;31781;54.094;13.428;2022-11-20T04:57:52;0.00;0.00;0.00
46044;PMS7003;31781;54.094;13.428;2022-11-20T05:03:03;0.00;0.00;0.00
46044;PMS7003;31781;54.094;13.428;2022-11-20T05:08:06;0.00;0.00;0.00
46044;PMS7003;31781;54.094;13.428;2022-11-20T05:13:09;0.33;0.33;0.00
46044;PMS7003;31781;54.094;13.428;2022-11-20T05:18:19;1.00;1.00;0.67
46044;PMS7003;31781;54.094;13.428;2022-11-20T05:23:23;0.00;0.00;0.00
46044;PMS7003;31781;54.094;13.428;2022-11-20T05:33:47;2.00;0.00;0.00
46044;PMS7003;31781;54.094;13.428;2022-11-20T05:39:10;0.67;0.67;0.00
46044;PMS7003;31781;54.094;13.428;2022-11-20T05:44:13;0.00;0.00;0.00
46044;PMS7003;31781;54.094;13.428;2022-11-20T05:49:15;0.00;0.00;0.00
46044;PMS7003;31781;54.094;13.428;2022-11-20T05:54:24;0.00;0.00;0.00
46044;PMS7003;31781;54.094;13.428;2022-11-20T06:04:46;0.33;0.33;0.00
46044;PMS7003;31781;54.094;13.428;2022-11-20T06:10:05;0.00;0.00;0.00
46044;PMS7003;31781;54.094;13.428;2022-11-20T06:15:08;0.00;0.00;0.00
46044;PMS7003;31781;54.094;13.428;2022-11-20T06:20:30;0.33;0.33;0.00
46044;PMS7003;31781;54.094;13.428;2022-11-20T06:25:39;1.00;1.00;0.33
46044;PMS7003;31781;54.094;13.428;2022-11-20T06:30:44;1.00;1.00;0.67
46044;PMS7003;31781;54.094;13.428;2022-11-20T06:35:55;1.67;1.67;1.00
46044;PMS7003;31781;54.094;13.428;2022-11-20T06:41:03;0.33;0.33;0.00
46044;PMS7003;31781;54.094;13.428;2022-11-20T06:46:08;0.00;0.00;0.00
46044;PMS7003;31781;54.094;13.428;2022-11-20T06:51:19;0.00;0.00;0.00
46044;PMS7003;31781;54.094;13.428;2022-11-20T06:56:22;1.00;1.00;1.00
46044;PMS7003;31781;54.094;13.428;2022-11-20T07:01:25;0.00;0.00;0.00
46044;PMS7003;31781;54.094;13.428;2022-11-20T07:06:46;1.00;1.00;0.00
46044;PMS7003;31781;54.094;13.428;2022-11-20T07:11:53;1.00;1.00;0.00
46044;PMS7003;31781;54.094;13.428;2022-11-20T07:16:57;0.33;0.33;0.00
46044;PMS7003;31781;54.094;13.428;2022-11-20T07:27:30;1.00;1.00;1.00
46044;PMS7003;31781;54.094;13.428;2022-11-20T07:32:33;2.00;2.00;2.00
46044;PMS7003;31781;54.094;13.428;2022-11-20T07:37:53;0.33;0.33;0.00
46044;PMS7003;31781;54.094;13.428;2022-11-20T07:43:14;1.00;1.00;1.00
46044;PMS7003;31781;54.094;13.428;2022-11-20T07:48:17;2.00;2.00;2.00
46044;PMS7003;31781;54.094;13.428;2022-11-20T07:53:20;2.67;2.00;2.00
46044;PMS7003;31781;54.094;13.428;2022-11-20T07:58:28;2.00;2.00;1.00
46044;PMS7003;31781;54.094;13.428;2022-11-20T08:03:32;1.67;1.67;1.67
46044;PMS7003;31781;54.094;13.428;2022-11-20T08:08:34;2.67;2.67;1.67
46044;PMS7003;31781;54.094;13.428;2022-11-20T08:19:02;1.67;1.67;1.67
46044;PMS7003;31781;54.094;13.428;2022-11-20T08:24:06;4.00;2.00;1.67
46044;PMS7003;31781;54.094;13.428;2022-11-20T08:29:13;2.00;2.00;2.00
46044;PMS7003;31781;54.094;13.428;2022-11-20T08:34:23;3.33;3.33;2.00
46044;PMS7003;31781;54.094;13.428;2022-11-20T08:39:25;1.00;1.00;1.00
46044;PMS7003;31781;54.094;13.428;2022-11-20T08:44:28;2.00;2.00;1.00
46044;PMS7003;31781;54.094;13.428;2022-11-20T08:49:36;6.33;4.00;2.00
46044;PMS7003;31781;54.094;13.428;2022-11-20T08:54:39;4.00;1.67;1.00
46044;PMS7003;31781;54.094;13.428;2022-11-20T08:59:49;3.33;3.33;2.00
46044;PMS7003;31781;54.094;13.428;2022-11-20T09:05:15;2.00;2.00;1.33
46044;PMS7003;31781;54.094;13.428;2022-11-20T09:10:33;1.00;1.00;1.00
46044;PMS7003;31781;54.094;13.428;2022-11-20T09:21:06;0.00;0.00;0.00
46044;PMS7003;31781;54.094;13.428;2022-11-20T09:26:14;4.00;4.00;4.00
46044;PMS7003;31781;54.094;13.428;2022-11-20T09:31:19;2.00;2.00;1.00
46044;PMS7003;31781;54.094;13.428;2022-11-20T09:36:32;4.00;1.33;1.33
46044;PMS7003;31781;54.094;13.428;2022-11-20T09:41:42;1.00;1.00;1.00
46044;PMS7003;31781;54.094;13.428;2022-11-20T09:47:02;1.00;1.00;1.00
46044;PMS7003;31781;54.094;13.428;2022-11-20T09:52:20;2.00;2.00;1.00
46044;PMS7003;31781;54.094;13.428;2022-11-20T09:57:30;2.67;2.67;2.00
46044;PMS7003;31781;54.094;13.428;2022-11-20T10:02:41;2.00;2.00;1.00
46044;PMS7003;31781;54.094;13.428;2022-11-20T10:08:08;0.67;0.67;0.00
46044;PMS7003;31781;54.094;13.428;2022-11-20T10:13:20;1.00;1.00;1.00
46044;PMS7003;31781;54.094;13.428;2022-11-20T10:18:42;5.00;2.00;2.00
46044;PMS7003;31781;54.094;13.428;2022-11-20T10:29:27;1.67;1.67;1.00
46044;PMS7003;31781;54.094;13.428;2022-11-20T10:34:50;1.00;1.00;1.00
46044;PMS7003;31781;54.094;13.428;2022-11-20T10:40:04;1.00;1.00;1.00
46044;PMS7003;31781;54.094;13.428;2022-11-20T10:45:35;2.00;2.00;2.00
46044;PMS7003;31781;54.094;13.428;2022-11-20T10:50:57;2.00;2.00;1.67
46044;PMS7003;31781;54.094;13.428;2022-11-20T10:56:11;2.33;2.33;2.00
46044;PMS7003;31781;54.094;13.428;2022-11-20T11:01:21;6.00;3.67;3.00
46044;PMS7003;31781;54.094;13.428;2022-11-20T11:06:32;2.00;2.00;1.67
46044;PMS7003;31781;54.094;13.428;2022-11-20T11:11:40;3.67;3.67;3.67
46044;PMS7003;31781;54.094;13.428;2022-11-20T11:16:49;1.00;1.00;1.00
46044;PMS7003;31781;54.094;13.428;2022-11-20T11:21:59;3.67;1.67;1.00
46044;PMS7003;31781;54.094;13.428;2022-11-20T11:27:03;3.00;2.00;2.00
46044;PMS7003;31781;54.094;13.428;2022-11-20T11:37:40;1.00;1.00;0.00
46044;PMS7003;31781;54.094;13.428;2022-11-20T11:48:03;1.67;1.67;1.67
46044;PMS7003;31781;54.094;13.428;2022-11-20T11:53:12;1.00;1.00;1.00
46044;PMS7003;31781;54.094;13.428;2022-11-20T11:58:31;2.00;2.00;2.00
46044;PMS7003;31781;54.094;13.428;2022-11-20T12:03:49;1.00;1.00;1.00
46044;PMS7003;31781;54.094;13.428;2022-11-20T12:09:05;2.67;1.00;1.00
46044;PMS7003;31781;54.094;13.428;2022-11-20T12:14:14;1.00;1.00;1.00
46044;PMS7003;31781;54.094;13.428;2022-11-20T12:19:28;2.00;2.00;1.67
46044;PMS7003;31781;54.094;13.428;2022-11-20T12:24:40;1.00;1.00;1.00
46044;PMS7003;31781;54.094;13.428;2022-11-20T12:30:07;1.00;1.00;1.00
46044;PMS7003;31781;54.094;13.428;2022-11-20T12:35:18;4.33;2.00;2.00
46044;PMS7003;31781;54.094;13.428;2022-11-20T12:40:35;1.00;1.00;1.00
46044;PMS7003;31781;54.094;13.428;2022-11-20T12:46:00;0.00;0.00;0.00
46044;PMS7003;31781;54.094;13.428;2022-11-20T12:51:32;1.00;1.00;0.00
46044;PMS7003;31781;54.094;13.428;2022-11-20T12:56:46;0.00;0.00;0.00
46044;PMS7003;31781;54.094;13.428;2022-11-20T13:02:13;1.00;1.00;1.00
46044;PMS7003;31781;54.094;13.428;2022-11-20T13:12:56;3.33;1.00;1.00
46044;PMS7003;31781;54.094;13.428;2022-11-20T13:18:07;1.33;0.00;0.00
46044;PMS7003;31781;54.094;13.428;2022-11-20T13:23:22;2.33;2.33;2.00
46044;PMS7003;31781;54.094;13.428;2022-11-20T13:28:33;1.33;1.33;1.00
46044;PMS7003;31781;54.094;13.428;2022-11-20T13:33:43;2.67;2.67;2.00
46044;PMS7003;31781;54.094;13.428;2022-11-20T13:38:49;5.67;5.00;4.00
46044;PMS7003;31781;54.094;13.428;2022-11-20T13:44:22;2.00;2.00;2.00
46044;PMS7003;31781;54.094;13.428;2022-11-20T13:49:33;3.33;3.33;2.67
46044;PMS7003;31781;54.094;13.428;2022-11-20T13:54:55;8.00;8.00;5.00
46044;PMS7003;31781;54.094;13.428;2022-11-20T14:00:15;6.00;5.00;4.00
46044;PMS7003;31781;54.094;13.428;2022-11-20T14:05:21;6.00;6.00;4.67
46044;PMS7003;31781;54.094;13.428;2022-11-20T14:10:26;5.00;5.00;4.00
46044;PMS7003;31781;54.094;13.428;2022-11-20T14:15:38;4.67;4.67;4.00
46044;PMS7003;31781;54.094;13.428;2022-11-20T14:20:45;4.00;4.00;3.33
46044;PMS7003;31781;54.094;13.428;2022-11-20T14:26:07;7.00;5.00;4.00
46044;PMS7003;31781;54.094;13.428;2022-11-20T14:36:37;6.00;6.00;5.00
46044;PMS7003;31781;54.094;13.428;2022-11-20T14:41:49;6.33;6.33;5.33
46044;PMS7003;31781;54.094;13.428;2022-11-20T14:46:52;11.33;9.67;6.00
46044;PMS7003;31781;54.094;13.428;2022-11-20T14:52:10;14.33;12.00;9.00
46044;PMS7003;31781;54.094;13.428;2022-11-20T14:57:26;5.33;4.33;4.00
46044;PMS7003;31781;54.094;13.428;2022-11-20T15:02:31;7.33;7.33;5.00
46044;PMS7003;31781;54.094;13.428;2022-11-20T15:07:41;8.00;5.67;5.00
46044;PMS7003;31781;54.094;13.428;2022-11-20T15:12:47;7.33;5.33;4.00
46044;PMS7003;31781;54.094;13.428;2022-11-20T15:17:53;5.67;5.67;4.67
46044;PMS7003;31781;54.094;13.428;2022-11-20T15:23:01;7.67;7.67;6.00
46044;PMS7003;31781;54.094;13.428;2022-11-20T15:28:04;10.00;10.00;7.67
46044;PMS7003;31781;54.094;13.428;2022-11-20T15:33:07;7.67;5.33;2.67
46044;PMS7003;31781;54.094;13.428;2022-11-20T15:38:17;7.33;7.33;4.67
46044;PMS7003;31781;54.094;13.428;2022-11-20T15:43:19;10.33;8.33;6.33
46044;PMS7003;31781;54.094;13.428;2022-11-20T15:53:42;7.67;5.00;4.67
46044;PMS7003;31781;54.094;13.428;2022-11-20T15:58:45;8.67;8.33;6.33
46044;PMS7003;31781;54.094;13.428;2022-11-20T16:04:07;12.67;11.00;7.33
46044;PMS7003;31781;54.094;13.428;2022-11-20T16:09:13;14.00;11.00;8.67
46044;PMS7003;31781;54.094;13.428;2022-11-20T16:14:16;17.00;15.00;12.00
46044;PMS7003;31781;54.094;13.428;2022-11-20T16:19:24;16.00;11.33;7.00
46044;PMS7003;31781;54.094;13.428;2022-11-20T16:24:27;22.50;17.75;11.00
46044;PMS7003;31781;54.094;13.428;2022-11-20T16:29:30;8.67;8.67;7.00
46044;PMS7003;31781;54.094;13.428;2022-11-20T16:34:38;8.00;8.00;7.00
46044;PMS7003;31781;54.094;13.428;2022-11-20T16:39:41;10.00;10.00;6.33
46044;PMS7003;31781;54.094;13.428;2022-11-20T16:45:18;17.00;13.00;11.25
46044;PMS7003;31781;54.094;13.428;2022-11-20T16:55:47;10.00;10.00;7.00
46044;PMS7003;31781;54.094;13.428;2022-11-20T17:00:51;10.67;10.67;7.00
46044;PMS7003;31781;54.094;13.428;2022-11-20T17:06:17;7.33;7.33;5.00
46044;PMS7003;31781;54.094;13.428;2022-11-20T17:11:22;10.67;10.00;5.67
46044;PMS7003;31781;54.094;13.428;2022-11-20T17:21:45;7.33;5.00;4.00
46044;PMS7003;31781;54.094;13.428;2022-11-20T17:26:48;10.33;10.33;5.00
46044;PMS7003;31781;54.094;13.428;2022-11-20T17:31:58;8.00;8.00;7.00
46044;PMS7003;31781;54.094;13.428;2022-11-20T17:37:08;9.50;9.50;7.00
46044;PMS7003;31781;54.094;13.428;2022-11-20T17:42:10;20.67;16.33;10.33
46044;PMS7003;31781;54.094;13.428;2022-11-20T17:47:16;10.00;10.00;7.75
46044;PMS7003;31781;54.094;13.428;2022-11-20T17:52:36;15.00;15.00;9.67
46044;PMS7003;31781;54.094;13.428;2022-11-20T17:57:54;7.00;5.00;4.00
46044;PMS7003;31781;54.094;13.428;2022-11-20T18:02:57;7.67;7.67;7.00
46044;PMS7003;31781;54.094;13.428;2022-11-20T18:08:17;6.67;4.67;2.67
46044;PMS7003;31781;54.094;13.428;2022-11-20T18:13:21;11.00;8.50;7.00
46044;PMS7003;31781;54.094;13.428;2022-11-20T18:18:25;11.25;7.00;4.00
46044;PMS7003;31781;54.094;13.428;2022-11-20T18:23:34;8.50;8.50;7.25
46044;PMS7003;31781;54.094;13.428;2022-11-20T18:28:38;7.75;6.75;4.75
46044;PMS7003;31781;54.094;13.428;2022-11-20T18:33:41;7.50;7.50;6.00
46044;PMS7003;31781;54.094;13.428;2022-11-20T18:39:02;10.00;8.00;7.00
46044;PMS7003;31781;54.094;13.428;2022-11-20T18:44:10;5.00;5.00;4.75
46044;PMS7003;31781;54.094;13.428;2022-11-20T18:49:16;5.50;4.75;4.00
46044;PMS7003;31781;54.094;13.428;2022-11-20T18:54:24;13.00;11.00;8.25
46044;PMS7003;31781;54.094;13.428;2022-11-20T18:59:28;13.00;13.00;7.75
46044;PMS7003;31781;54.094;13.428;2022-11-20T19:04:31;8.00;5.50;3.00
46044;PMS7003;31781;54.094;13.428;2022-11-20T19:14:56;16.50;14.00;9.75
46044;PMS7003;31781;54.094;13.428;2022-11-20T19:20:17;6.50;6.50;4.50
46044;PMS7003;31781;54.094;13.428;2022-11-20T19:25:21;5.00;5.00;4.25
46044;PMS7003;31781;54.094;13.428;2022-11-20T19:30:24;7.25;7.25;5.00
46044;PMS7003;31781;54.094;13.428;2022-11-20T19:35:33;3.50;3.50;2.50
46044;PMS7003;31781;54.094;13.428;2022-11-20T19:40:36;8.00;7.50;5.00
46044;PMS7003;31781;54.094;13.428;2022-11-20T19:45:39;8.75;6.00;4.75
46044;PMS7003;31781;54.094;13.428;2022-11-20T19:50:49;4.67;4.67;4.67
46044;PMS7003;31781;54.094;13.428;2022-11-20T19:55:55;7.00;7.00;5.00
46044;PMS7003;31781;54.094;13.428;2022-11-20T20:01:04;3.33;2.00;1.00
46044;PMS7003;31781;54.094;13.428;2022-11-20T20:06:13;5.00;5.00;4.00
46044;PMS7003;31781;54.094;13.428;2022-11-20T20:16:37;4.25;4.25;4.00
46044;PMS7003;31781;54.094;13.428;2022-11-20T20:21:41;5.67;5.67;4.67
46044;PMS7003;31781;54.094;13.428;2022-11-20T20:26:45;4.00;4.00;2.00
46044;PMS7003;31781;54.094;13.428;2022-11-20T20:31:53;4.33;4.33;4.00
46044;PMS7003;31781;54.094;13.428;2022-11-20T20:36:55;7.00;7.00;4.33
46044;PMS7003;31781;54.094;13.428;2022-11-20T21:07:55;8.00;7.00;5.00
46044;PMS7003;31781;54.094;13.428;2022-11-20T21:12:59;4.33;4.33;2.00
46044;PMS7003;31781;54.094;13.428;2022-11-20T21:18:01;4.00;4.00;2.67
46044;PMS7003;31781;54.094;13.428;2022-11-20T21:50:45;7.00;7.00;5.00
46044;PMS7003;31781;54.094;13.428;2022-11-20T21:56:08;8.00;7.00;4.33
46044;PMS7003;31781;54.094;13.428;2022-11-20T22:01:30;8.00;7.33;5.67
46044;PMS7003;31781;54.094;13.428;2022-11-20T22:26:30;4.67;4.67;3.33
